Terminal Aerodrome Forecast
Issued by NWS

Home | Current Version | Previous Version | Graphics & Text | Print | Product List | Glossary On
Versions: 1 2 3 4 5 6 7 8 9 10 11 12 13 14 15 16 17 18 19 20 21 22
000
FTUS43 KABR 252200 AAC
TAFATY
TAF AMD
KATY 252218Z 2522/2618 10011KT P6SM FEW025 SCT045
     FM260200 11006KT P6SM BKN025
     FM261300 11013KT P6SM FEW050=

USA.gov is the U.S. government's official web portal to all federal, state and local government web resources and services.